sensor_id;sensor_type;location;lat;lon;timestamp;temperature;humidity
3690;DHT22;1861;50.240;8.596;2023-05-25T00:01:52;14.50;94.30
3690;DHT22;1861;50.240;8.596;2023-05-25T00:04:20;14.50;94.00
3690;DHT22;1861;50.240;8.596;2023-05-25T00:06:53;14.50;94.20
3690;DHT22;1861;50.240;8.596;2023-05-25T00:09:21;14.50;94.20
3690;DHT22;1861;50.240;8.596;2023-05-25T00:11:49;14.40;94.20
3690;DHT22;1861;50.240;8.596;2023-05-25T00:14:18;14.40;94.40
3690;DHT22;1861;50.240;8.596;2023-05-25T00:16:46;14.50;94.50
3690;DHT22;1861;50.240;8.596;2023-05-25T00:19:16;14.50;94.30
3690;DHT22;1861;50.240;8.596;2023-05-25T00:21:44;14.50;94.40
3690;DHT22;1861;50.240;8.596;2023-05-25T00:24:14;14.50;94.40
3690;DHT22;1861;50.240;8.596;2023-05-25T00:26:42;14.50;94.40
3690;DHT22;1861;50.240;8.596;2023-05-25T00:29:13;14.50;94.70
3690;DHT22;1861;50.240;8.596;2023-05-25T00:31:42;14.40;94.60
3690;DHT22;1861;50.240;8.596;2023-05-25T00:34:10;14.40;94.60
3690;DHT22;1861;50.240;8.596;2023-05-25T00:36:39;14.40;94.70
3690;DHT22;1861;50.240;8.596;2023-05-25T00:39:09;14.40;94.60
3690;DHT22;1861;50.240;8.596;2023-05-25T00:41:38;14.40;94.60
3690;DHT22;1861;50.240;8.596;2023-05-25T00:44:07;14.40;94.60
3690;DHT22;1861;50.240;8.596;2023-05-25T00:46:36;14.40;94.60
3690;DHT22;1861;50.240;8.596;2023-05-25T00:49:05;14.30;94.60
3690;DHT22;1861;50.240;8.596;2023-05-25T00:51:33;14.30;94.70
3690;DHT22;1861;50.240;8.596;2023-05-25T00:54:03;14.30;94.90
3690;DHT22;1861;50.240;8.596;2023-05-25T00:56:36;14.40;94.80
3690;DHT22;1861;50.240;8.596;2023-05-25T00:59:05;14.30;94.80
3690;DHT22;1861;50.240;8.596;2023-05-25T01:01:36;14.30;94.90
3690;DHT22;1861;50.240;8.596;2023-05-25T01:04:08;14.30;94.90
3690;DHT22;1861;50.240;8.596;2023-05-25T01:06:37;14.20;95.00
3690;DHT22;1861;50.240;8.596;2023-05-25T01:09:08;14.20;95.00
3690;DHT22;1861;50.240;8.596;2023-05-25T01:11:43;14.20;94.90
3690;DHT22;1861;50.240;8.596;2023-05-25T01:14:11;14.20;95.00
3690;DHT22;1861;50.240;8.596;2023-05-25T01:16:40;14.20;95.00
3690;DHT22;1861;50.240;8.596;2023-05-25T01:19:09;14.20;95.20
3690;DHT22;1861;50.240;8.596;2023-05-25T01:21:43;14.20;95.10
3690;DHT22;1861;50.240;8.596;2023-05-25T01:24:18;14.30;95.10
3690;DHT22;1861;50.240;8.596;2023-05-25T01:26:53;14.20;95.10
3690;DHT22;1861;50.240;8.596;2023-05-25T01:29:23;14.20;95.20
3690;DHT22;1861;50.240;8.596;2023-05-25T01:31:53;14.20;95.10
3690;DHT22;1861;50.240;8.596;2023-05-25T01:34:23;14.20;95.20
3690;DHT22;1861;50.240;8.596;2023-05-25T01:36:53;14.20;95.30
3690;DHT22;1861;50.240;8.596;2023-05-25T01:39:22;14.10;95.30
3690;DHT22;1861;50.240;8.596;2023-05-25T01:41:50;14.10;95.40
3690;DHT22;1861;50.240;8.596;2023-05-25T01:44:19;14.10;95.40
3690;DHT22;1861;50.240;8.596;2023-05-25T01:46:51;14.10;95.40
3690;DHT22;1861;50.240;8.596;2023-05-25T01:49:25;14.10;95.40
3690;DHT22;1861;50.240;8.596;2023-05-25T01:52:02;14.10;95.60
3690;DHT22;1861;50.240;8.596;2023-05-25T01:54:36;14.10;95.50
3690;DHT22;1861;50.240;8.596;2023-05-25T01:57:06;14.10;95.50
3690;DHT22;1861;50.240;8.596;2023-05-25T01:59:41;14.00;95.60
3690;DHT22;1861;50.240;8.596;2023-05-25T02:02:12;14.00;95.60
3690;DHT22;1861;50.240;8.596;2023-05-25T02:04:41;14.00;95.60
3690;DHT22;1861;50.240;8.596;2023-05-25T02:07:11;14.00;95.60
3690;DHT22;1861;50.240;8.596;2023-05-25T02:09:39;14.10;95.60
3690;DHT22;1861;50.240;8.596;2023-05-25T02:12:07;14.00;95.70
3690;DHT22;1861;50.240;8.596;2023-05-25T02:14:36;14.00;95.60
3690;DHT22;1861;50.240;8.596;2023-05-25T02:17:04;14.00;95.80
3690;DHT22;1861;50.240;8.596;2023-05-25T02:19:34;13.90;95.80
3690;DHT22;1861;50.240;8.596;2023-05-25T02:22:03;13.90;95.70
3690;DHT22;1861;50.240;8.596;2023-05-25T02:24:33;13.90;95.80
3690;DHT22;1861;50.240;8.596;2023-05-25T02:27:01;13.80;95.80
3690;DHT22;1861;50.240;8.596;2023-05-25T02:29:29;13.90;95.90
3690;DHT22;1861;50.240;8.596;2023-05-25T02:31:58;13.90;95.90
3690;DHT22;1861;50.240;8.596;2023-05-25T02:34:27;13.90;95.90
3690;DHT22;1861;50.240;8.596;2023-05-25T02:36:56;13.90;96.00
3690;DHT22;1861;50.240;8.596;2023-05-25T02:39:25;14.00;95.80
3690;DHT22;1861;50.240;8.596;2023-05-25T02:41:57;13.90;96.00
3690;DHT22;1861;50.240;8.596;2023-05-25T02:44:26;13.90;96.00
3690;DHT22;1861;50.240;8.596;2023-05-25T02:46:54;14.00;96.00
3690;DHT22;1861;50.240;8.596;2023-05-25T02:49:22;13.90;96.00
3690;DHT22;1861;50.240;8.596;2023-05-25T02:51:51;13.90;96.10
3690;DHT22;1861;50.240;8.596;2023-05-25T02:54:20;13.80;96.10
3690;DHT22;1861;50.240;8.596;2023-05-25T02:56:48;13.90;96.20
3690;DHT22;1861;50.240;8.596;2023-05-25T02:59:18;13.90;96.10
3690;DHT22;1861;50.240;8.596;2023-05-25T03:01:47;13.80;96.20
3690;DHT22;1861;50.240;8.596;2023-05-25T03:04:15;13.90;96.20
3690;DHT22;1861;50.240;8.596;2023-05-25T03:06:43;13.80;96.20
3690;DHT22;1861;50.240;8.596;2023-05-25T03:09:16;13.80;96.20
3690;DHT22;1861;50.240;8.596;2023-05-25T03:11:47;13.80;96.20
3690;DHT22;1861;50.240;8.596;2023-05-25T03:14:19;13.80;96.30
3690;DHT22;1861;50.240;8.596;2023-05-25T03:16:54;13.90;96.30
3690;DHT22;1861;50.240;8.596;2023-05-25T03:19:23;13.90;96.10
3690;DHT22;1861;50.240;8.596;2023-05-25T03:21:51;13.90;96.10
3690;DHT22;1861;50.240;8.596;2023-05-25T03:24:19;13.80;96.20
3690;DHT22;1861;50.240;8.596;2023-05-25T03:26:48;13.80;96.10
3690;DHT22;1861;50.240;8.596;2023-05-25T03:29:16;13.80;96.10
3690;DHT22;1861;50.240;8.596;2023-05-25T03:31:46;13.80;96.10
3690;DHT22;1861;50.240;8.596;2023-05-25T03:34:15;13.80;96.10
3690;DHT22;1861;50.240;8.596;2023-05-25T03:36:43;13.70;96.10
3690;DHT22;1861;50.240;8.596;2023-05-25T03:39:15;13.80;96.20
3690;DHT22;1861;50.240;8.596;2023-05-25T03:41:43;13.80;96.20
3690;DHT22;1861;50.240;8.596;2023-05-25T03:44:12;13.80;96.10
3690;DHT22;1861;50.240;8.596;2023-05-25T03:46:42;13.90;96.20
3690;DHT22;1861;50.240;8.596;2023-05-25T03:49:13;13.90;96.20
3690;DHT22;1861;50.240;8.596;2023-05-25T03:51:42;13.80;96.10
3690;DHT22;1861;50.240;8.596;2023-05-25T03:54:12;13.90;96.10
3690;DHT22;1861;50.240;8.596;2023-05-25T03:56:40;13.80;96.10
3690;DHT22;1861;50.240;8.596;2023-05-25T03:59:08;13.80;96.10
3690;DHT22;1861;50.240;8.596;2023-05-25T04:01:36;13.80;96.20
3690;DHT22;1861;50.240;8.596;2023-05-25T04:04:05;13.90;96.30
3690;DHT22;1861;50.240;8.596;2023-05-25T04:06:37;13.80;96.20
3690;DHT22;1861;50.240;8.596;2023-05-25T04:09:06;13.80;96.20
3690;DHT22;1861;50.240;8.596;2023-05-25T04:11:34;13.80;96.30
3690;DHT22;1861;50.240;8.596;2023-05-25T04:14:02;13.80;96.30
3690;DHT22;1861;50.240;8.596;2023-05-25T04:16:34;13.90;96.40
3690;DHT22;1861;50.240;8.596;2023-05-25T04:19:03;13.90;96.40
3690;DHT22;1861;50.240;8.596;2023-05-25T04:21:32;14.00;96.40
3690;DHT22;1861;50.240;8.596;2023-05-25T04:24:02;13.90;96.40
3690;DHT22;1861;50.240;8.596;2023-05-25T04:26:30;13.90;96.50
3690;DHT22;1861;50.240;8.596;2023-05-25T04:28:59;13.90;96.50
3690;DHT22;1861;50.240;8.596;2023-05-25T04:31:39;13.90;96.60
3690;DHT22;1861;50.240;8.596;2023-05-25T04:34:12;13.90;96.70
3690;DHT22;1861;50.240;8.596;2023-05-25T04:36:49;13.90;96.60
3690;DHT22;1861;50.240;8.596;2023-05-25T04:39:18;13.90;96.60
3690;DHT22;1861;50.240;8.596;2023-05-25T04:41:51;14.00;96.60
3690;DHT22;1861;50.240;8.596;2023-05-25T04:44:19;14.00;96.70
3690;DHT22;1861;50.240;8.596;2023-05-25T04:46:51;14.00;96.60
3690;DHT22;1861;50.240;8.596;2023-05-25T04:49:28;14.00;96.70
3690;DHT22;1861;50.240;8.596;2023-05-25T04:51:56;13.90;96.60
3690;DHT22;1861;50.240;8.596;2023-05-25T04:54:28;13.90;96.70
3690;DHT22;1861;50.240;8.596;2023-05-25T04:56:59;14.00;96.70
3690;DHT22;1861;50.240;8.596;2023-05-25T04:59:29;14.00;96.60
3690;DHT22;1861;50.240;8.596;2023-05-25T05:01:57;14.00;96.70
3690;DHT22;1861;50.240;8.596;2023-05-25T05:04:25;14.10;96.80
3690;DHT22;1861;50.240;8.596;2023-05-25T05:06:54;14.10;96.80
3690;DHT22;1861;50.240;8.596;2023-05-25T05:09:28;14.10;96.80
3690;DHT22;1861;50.240;8.596;2023-05-25T05:11:59;14.10;96.80
3690;DHT22;1861;50.240;8.596;2023-05-25T05:14:29;14.10;96.70
3690;DHT22;1861;50.240;8.596;2023-05-25T05:16:57;14.10;96.80
3690;DHT22;1861;50.240;8.596;2023-05-25T05:19:26;14.10;96.80
3690;DHT22;1861;50.240;8.596;2023-05-25T05:21:55;14.10;96.70
3690;DHT22;1861;50.240;8.596;2023-05-25T05:24:25;14.10;96.80
3690;DHT22;1861;50.240;8.596;2023-05-25T05:26:54;14.10;96.80
3690;DHT22;1861;50.240;8.596;2023-05-25T05:29:34;14.10;96.90
3690;DHT22;1861;50.240;8.596;2023-05-25T05:32:04;14.10;96.90
3690;DHT22;1861;50.240;8.596;2023-05-25T05:34:32;14.20;96.80
3690;DHT22;1861;50.240;8.596;2023-05-25T05:37:05;14.20;96.90
3690;DHT22;1861;50.240;8.596;2023-05-25T05:39:34;14.20;96.90
3690;DHT22;1861;50.240;8.596;2023-05-25T05:42:05;14.30;96.90
3690;DHT22;1861;50.240;8.596;2023-05-25T05:44:35;14.30;96.90
3690;DHT22;1861;50.240;8.596;2023-05-25T05:47:04;14.30;96.90
3690;DHT22;1861;50.240;8.596;2023-05-25T05:49:32;14.30;97.00
3690;DHT22;1861;50.240;8.596;2023-05-25T05:52:02;14.30;97.00
3690;DHT22;1861;50.240;8.596;2023-05-25T05:54:31;14.20;97.00
3690;DHT22;1861;50.240;8.596;2023-05-25T05:57:06;14.30;97.10
3690;DHT22;1861;50.240;8.596;2023-05-25T05:59:34;14.30;97.00
3690;DHT22;1861;50.240;8.596;2023-05-25T06:02:02;14.30;97.10
3690;DHT22;1861;50.240;8.596;2023-05-25T06:04:31;14.30;97.10
3690;DHT22;1861;50.240;8.596;2023-05-25T06:06:59;14.30;97.10
3690;DHT22;1861;50.240;8.596;2023-05-25T06:09:27;14.40;97.20
3690;DHT22;1861;50.240;8.596;2023-05-25T06:11:58;14.40;97.30
3690;DHT22;1861;50.240;8.596;2023-05-25T06:14:29;14.50;97.30
3690;DHT22;1861;50.240;8.596;2023-05-25T06:17:00;14.50;97.20
3690;DHT22;1861;50.240;8.596;2023-05-25T06:19:29;14.50;97.30
3690;DHT22;1861;50.240;8.596;2023-05-25T06:21:57;14.50;97.30
3690;DHT22;1861;50.240;8.596;2023-05-25T06:24:25;14.60;97.30
3690;DHT22;1861;50.240;8.596;2023-05-25T06:26:53;14.70;97.40
3690;DHT22;1861;50.240;8.596;2023-05-25T06:29:22;14.70;97.30
3690;DHT22;1861;50.240;8.596;2023-05-25T06:31:51;14.70;97.40
3690;DHT22;1861;50.240;8.596;2023-05-25T06:34:19;14.70;97.40
3690;DHT22;1861;50.240;8.596;2023-05-25T06:36:47;14.70;97.40
3690;DHT22;1861;50.240;8.596;2023-05-25T06:39:17;14.70;97.30
3690;DHT22;1861;50.240;8.596;2023-05-25T06:41:45;14.80;97.50
3690;DHT22;1861;50.240;8.596;2023-05-25T06:44:24;14.80;97.40
3690;DHT22;1861;50.240;8.596;2023-05-25T06:46:54;14.90;97.40
3690;DHT22;1861;50.240;8.596;2023-05-25T06:49:23;14.90;97.30
3690;DHT22;1861;50.240;8.596;2023-05-25T06:51:51;14.80;97.30
3690;DHT22;1861;50.240;8.596;2023-05-25T06:54:20;15.00;97.40
3690;DHT22;1861;50.240;8.596;2023-05-25T06:56:48;14.90;97.40
3690;DHT22;1861;50.240;8.596;2023-05-25T06:59:16;15.00;97.30
3690;DHT22;1861;50.240;8.596;2023-05-25T07:01:45;15.00;97.30
3690;DHT22;1861;50.240;8.596;2023-05-25T07:04:15;15.00;97.30
3690;DHT22;1861;50.240;8.596;2023-05-25T07:06:43;15.00;97.30
3690;DHT22;1861;50.240;8.596;2023-05-25T07:09:12;15.00;97.70
3690;DHT22;1861;50.240;8.596;2023-05-25T07:11:40;15.10;97.40
3690;DHT22;1861;50.240;8.596;2023-05-25T07:14:08;15.10;97.30
3690;DHT22;1861;50.240;8.596;2023-05-25T07:16:37;15.20;97.30
3690;DHT22;1861;50.240;8.596;2023-05-25T07:19:05;15.30;97.30
3690;DHT22;1861;50.240;8.596;2023-05-25T07:21:34;15.20;97.00
3690;DHT22;1861;50.240;8.596;2023-05-25T07:24:03;15.20;97.00
3690;DHT22;1861;50.240;8.596;2023-05-25T07:26:32;15.30;97.10
3690;DHT22;1861;50.240;8.596;2023-05-25T07:29:00;15.30;97.00
3690;DHT22;1861;50.240;8.596;2023-05-25T07:31:29;15.30;97.00
3690;DHT22;1861;50.240;8.596;2023-05-25T07:33:57;15.40;97.10
3690;DHT22;1861;50.240;8.596;2023-05-25T07:36:25;15.40;97.10
3690;DHT22;1861;50.240;8.596;2023-05-25T07:38:55;15.40;96.90
3690;DHT22;1861;50.240;8.596;2023-05-25T07:41:23;15.50;97.00
3690;DHT22;1861;50.240;8.596;2023-05-25T07:43:52;15.50;96.90
3690;DHT22;1861;50.240;8.596;2023-05-25T07:46:20;15.60;97.30
3690;DHT22;1861;50.240;8.596;2023-05-25T07:48:51;15.60;97.00
3690;DHT22;1861;50.240;8.596;2023-05-25T07:51:20;15.70;96.80
3690;DHT22;1861;50.240;8.596;2023-05-25T07:53:52;15.60;96.30
3690;DHT22;1861;50.240;8.596;2023-05-25T07:56:22;15.70;96.30
3690;DHT22;1861;50.240;8.596;2023-05-25T07:58:51;15.70;96.10
3690;DHT22;1861;50.240;8.596;2023-05-25T08:01:19;15.70;96.00
3690;DHT22;1861;50.240;8.596;2023-05-25T08:03:47;15.80;95.70
3690;DHT22;1861;50.240;8.596;2023-05-25T08:06:16;15.80;95.80
3690;DHT22;1861;50.240;8.596;2023-05-25T08:08:44;15.90;95.90
3690;DHT22;1861;50.240;8.596;2023-05-25T08:11:14;15.90;95.70
3690;DHT22;1861;50.240;8.596;2023-05-25T08:13:44;15.90;95.60
3690;DHT22;1861;50.240;8.596;2023-05-25T08:16:12;15.90;95.50
3690;DHT22;1861;50.240;8.596;2023-05-25T08:18:42;15.90;95.50
3690;DHT22;1861;50.240;8.596;2023-05-25T08:21:13;15.90;95.40
3690;DHT22;1861;50.240;8.596;2023-05-25T08:23:41;15.90;95.20
3690;DHT22;1861;50.240;8.596;2023-05-25T08:26:10;16.00;95.40
3690;DHT22;1861;50.240;8.596;2023-05-25T08:29:00;16.00;95.20
3690;DHT22;1861;50.240;8.596;2023-05-25T08:31:28;16.00;95.20
3690;DHT22;1861;50.240;8.596;2023-05-25T08:33:57;16.00;95.20
3690;DHT22;1861;50.240;8.596;2023-05-25T08:36:25;16.10;95.30
3690;DHT22;1861;50.240;8.596;2023-05-25T08:38:54;16.10;95.30
3690;DHT22;1861;50.240;8.596;2023-05-25T08:41:22;16.10;95.30
3690;DHT22;1861;50.240;8.596;2023-05-25T08:43:51;16.00;95.30
3690;DHT22;1861;50.240;8.596;2023-05-25T08:46:27;16.10;95.20
3690;DHT22;1861;50.240;8.596;2023-05-25T08:48:59;16.10;95.20
3690;DHT22;1861;50.240;8.596;2023-05-25T08:51:33;16.10;95.10
3690;DHT22;1861;50.240;8.596;2023-05-25T08:54:06;16.10;95.00
3690;DHT22;1861;50.240;8.596;2023-05-25T08:56:40;16.10;95.00
3690;DHT22;1861;50.240;8.596;2023-05-25T08:59:15;16.20;95.20
3690;DHT22;1861;50.240;8.596;2023-05-25T09:01:51;16.20;95.10
3690;DHT22;1861;50.240;8.596;2023-05-25T09:04:20;16.20;95.10
3690;DHT22;1861;50.240;8.596;2023-05-25T09:06:49;16.20;95.20
3690;DHT22;1861;50.240;8.596;2023-05-25T09:09:20;16.30;95.40
3690;DHT22;1861;50.240;8.596;2023-05-25T09:11:49;16.30;95.30
3690;DHT22;1861;50.240;8.596;2023-05-25T09:14:17;16.30;95.30
3690;DHT22;1861;50.240;8.596;2023-05-25T09:16:48;16.30;95.10
3690;DHT22;1861;50.240;8.596;2023-05-25T09:19:17;16.30;95.20
3690;DHT22;1861;50.240;8.596;2023-05-25T09:21:45;16.40;95.30
3690;DHT22;1861;50.240;8.596;2023-05-25T09:24:14;16.40;95.30
3690;DHT22;1861;50.240;8.596;2023-05-25T09:26:43;16.40;95.30
3690;DHT22;1861;50.240;8.596;2023-05-25T09:29:14;16.40;95.20
3690;DHT22;1861;50.240;8.596;2023-05-25T09:31:43;16.40;95.20
3690;DHT22;1861;50.240;8.596;2023-05-25T09:34:13;16.50;95.20
3690;DHT22;1861;50.240;8.596;2023-05-25T09:36:41;16.50;95.00
3690;DHT22;1861;50.240;8.596;2023-05-25T09:39:10;16.50;95.20
3690;DHT22;1861;50.240;8.596;2023-05-25T09:41:40;16.50;95.10
3690;DHT22;1861;50.240;8.596;2023-05-25T09:44:08;16.60;94.90
3690;DHT22;1861;50.240;8.596;2023-05-25T09:46:38;16.60;94.90
3690;DHT22;1861;50.240;8.596;2023-05-25T09:49:07;16.60;94.90
3690;DHT22;1861;50.240;8.596;2023-05-25T09:51:37;16.60;95.00
3690;DHT22;1861;50.240;8.596;2023-05-25T09:54:10;16.60;94.90
3690;DHT22;1861;50.240;8.596;2023-05-25T09:56:38;16.70;94.80
3690;DHT22;1861;50.240;8.596;2023-05-25T09:59:07;16.70;94.90
3690;DHT22;1861;50.240;8.596;2023-05-25T10:01:35;16.70;94.80
3690;DHT22;1861;50.240;8.596;2023-05-25T10:04:03;16.70;94.80
3690;DHT22;1861;50.240;8.596;2023-05-25T10:06:32;16.80;94.60
3690;DHT22;1861;50.240;8.596;2023-05-25T10:09:02;16.80;94.60
3690;DHT22;1861;50.240;8.596;2023-05-25T10:11:33;16.80;94.50
3690;DHT22;1861;50.240;8.596;2023-05-25T10:14:06;16.80;94.40
3690;DHT22;1861;50.240;8.596;2023-05-25T10:16:35;16.80;94.40
3690;DHT22;1861;50.240;8.596;2023-05-25T10:19:18;16.90;94.40
3690;DHT22;1861;50.240;8.596;2023-05-25T10:21:53;16.80;94.20
3690;DHT22;1861;50.240;8.596;2023-05-25T10:24:31;16.90;94.20
3690;DHT22;1861;50.240;8.596;2023-05-25T10:27:02;16.90;94.30
3690;DHT22;1861;50.240;8.596;2023-05-25T10:29:41;17.00;94.40
3690;DHT22;1861;50.240;8.596;2023-05-25T10:32:10;17.00;94.30
3690;DHT22;1861;50.240;8.596;2023-05-25T10:34:39;17.00;94.40
3690;DHT22;1861;50.240;8.596;2023-05-25T10:37:08;17.10;94.60
3690;DHT22;1861;50.240;8.596;2023-05-25T10:39:40;17.00;94.50
3690;DHT22;1861;50.240;8.596;2023-05-25T10:42:09;17.10;94.40
3690;DHT22;1861;50.240;8.596;2023-05-25T10:44:40;17.10;94.30
3690;DHT22;1861;50.240;8.596;2023-05-25T10:47:09;17.20;94.40
3690;DHT22;1861;50.240;8.596;2023-05-25T10:49:51;17.20;94.40
3690;DHT22;1861;50.240;8.596;2023-05-25T10:52:20;17.20;94.30
3690;DHT22;1861;50.240;8.596;2023-05-25T10:54:54;17.30;94.20
3690;DHT22;1861;50.240;8.596;2023-05-25T10:57:23;17.30;94.20
3690;DHT22;1861;50.240;8.596;2023-05-25T10:59:53;17.30;94.20
3690;DHT22;1861;50.240;8.596;2023-05-25T11:02:27;17.40;94.30
3690;DHT22;1861;50.240;8.596;2023-05-25T11:05:30;17.40;94.20
3690;DHT22;1861;50.240;8.596;2023-05-25T11:07:59;17.40;94.00
3690;DHT22;1861;50.240;8.596;2023-05-25T11:10:51;17.50;94.00
3690;DHT22;1861;50.240;8.596;2023-05-25T11:13:34;17.50;94.10
3690;DHT22;1861;50.240;8.596;2023-05-25T11:16:16;17.60;94.10
3690;DHT22;1861;50.240;8.596;2023-05-25T11:18:48;17.60;94.00
3690;DHT22;1861;50.240;8.596;2023-05-25T11:24:12;17.60;93.90
3690;DHT22;1861;50.240;8.596;2023-05-25T11:26:58;17.70;93.90
3690;DHT22;1861;50.240;8.596;2023-05-25T11:29:30;17.70;93.90
3690;DHT22;1861;50.240;8.596;2023-05-25T11:31:59;17.80;93.90
3690;DHT22;1861;50.240;8.596;2023-05-25T11:34:30;17.80;93.90
3690;DHT22;1861;50.240;8.596;2023-05-25T11:36:59;17.80;94.00
3690;DHT22;1861;50.240;8.596;2023-05-25T11:39:30;17.90;94.00
3690;DHT22;1861;50.240;8.596;2023-05-25T11:42:03;17.90;93.90
3690;DHT22;1861;50.240;8.596;2023-05-25T11:44:35;18.00;94.00
3690;DHT22;1861;50.240;8.596;2023-05-25T11:47:06;18.00;94.10
3690;DHT22;1861;50.240;8.596;2023-05-25T11:49:38;18.10;94.00
3690;DHT22;1861;50.240;8.596;2023-05-25T11:52:08;18.10;94.00
3690;DHT22;1861;50.240;8.596;2023-05-25T11:54:37;18.10;93.90
3690;DHT22;1861;50.240;8.596;2023-05-25T11:57:14;18.10;93.80
3690;DHT22;1861;50.240;8.596;2023-05-25T11:59:47;18.20;93.70
3690;DHT22;1861;50.240;8.596;2023-05-25T12:02:16;18.30;93.70
3690;DHT22;1861;50.240;8.596;2023-05-25T12:04:52;18.20;93.50
3690;DHT22;1861;50.240;8.596;2023-05-25T12:07:21;18.30;93.70
3690;DHT22;1861;50.240;8.596;2023-05-25T12:09:49;18.30;93.80
3690;DHT22;1861;50.240;8.596;2023-05-25T12:12:19;18.30;93.60
3690;DHT22;1861;50.240;8.596;2023-05-25T12:14:47;18.40;93.50
3690;DHT22;1861;50.240;8.596;2023-05-25T12:17:16;18.50;93.50
3690;DHT22;1861;50.240;8.596;2023-05-25T12:19:45;18.50;93.60
3690;DHT22;1861;50.240;8.596;2023-05-25T12:22:13;18.50;93.70
3690;DHT22;1861;50.240;8.596;2023-05-25T12:24:42;18.50;93.60
3690;DHT22;1861;50.240;8.596;2023-05-25T12:27:19;18.60;93.70
3690;DHT22;1861;50.240;8.596;2023-05-25T12:29:48;18.60;93.70
3690;DHT22;1861;50.240;8.596;2023-05-25T12:32:19;18.60;93.60
3690;DHT22;1861;50.240;8.596;2023-05-25T12:34:48;18.60;93.50
3690;DHT22;1861;50.240;8.596;2023-05-25T12:37:17;18.60;93.50
3690;DHT22;1861;50.240;8.596;2023-05-25T12:39:46;18.70;93.40
3690;DHT22;1861;50.240;8.596;2023-05-25T12:42:15;18.70;93.40
3690;DHT22;1861;50.240;8.596;2023-05-25T12:44:45;18.70;93.30
3690;DHT22;1861;50.240;8.596;2023-05-25T12:47:14;18.70;93.30
3690;DHT22;1861;50.240;8.596;2023-05-25T12:49:43;18.70;93.40
3690;DHT22;1861;50.240;8.596;2023-05-25T12:52:30;18.70;93.40
3690;DHT22;1861;50.240;8.596;2023-05-25T12:55:18;18.70;93.30
3690;DHT22;1861;50.240;8.596;2023-05-25T12:57:46;18.70;93.30
3690;DHT22;1861;50.240;8.596;2023-05-25T13:00:21;18.60;93.30
3690;DHT22;1861;50.240;8.596;2023-05-25T13:02:50;18.60;93.10
3690;DHT22;1861;50.240;8.596;2023-05-25T13:05:20;18.60;93.00
3690;DHT22;1861;50.240;8.596;2023-05-25T13:07:49;18.50;93.00
3690;DHT22;1861;50.240;8.596;2023-05-25T13:10:18;18.60;93.10
3690;DHT22;1861;50.240;8.596;2023-05-25T13:12:46;18.50;93.10
3690;DHT22;1861;50.240;8.596;2023-05-25T13:15:17;18.50;93.20
3690;DHT22;1861;50.240;8.596;2023-05-25T13:17:49;18.50;93.30
3690;DHT22;1861;50.240;8.596;2023-05-25T13:20:20;18.50;93.30
3690;DHT22;1861;50.240;8.596;2023-05-25T13:22:51;18.50;93.10
3690;DHT22;1861;50.240;8.596;2023-05-25T13:25:19;18.40;93.10
3690;DHT22;1861;50.240;8.596;2023-05-25T13:27:49;18.40;92.90
3690;DHT22;1861;50.240;8.596;2023-05-25T13:30:18;18.40;93.10
3690;DHT22;1861;50.240;8.596;2023-05-25T13:32:50;18.40;93.10
3690;DHT22;1861;50.240;8.596;2023-05-25T13:35:18;18.40;93.20
3690;DHT22;1861;50.240;8.596;2023-05-25T13:38:00;18.40;93.10
3690;DHT22;1861;50.240;8.596;2023-05-25T13:40:28;18.30;93.20
3690;DHT22;1861;50.240;8.596;2023-05-25T13:42:56;18.30;93.40
3690;DHT22;1861;50.240;8.596;2023-05-25T13:45:24;18.30;93.40
3690;DHT22;1861;50.240;8.596;2023-05-25T13:47:54;18.30;93.30
3690;DHT22;1861;50.240;8.596;2023-05-25T13:50:23;18.30;93.50
3690;DHT22;1861;50.240;8.596;2023-05-25T13:52:51;18.30;93.40
3690;DHT22;1861;50.240;8.596;2023-05-25T13:55:20;18.20;93.30
3690;DHT22;1861;50.240;8.596;2023-05-25T13:57:48;18.30;93.80
3690;DHT22;1861;50.240;8.596;2023-05-25T14:00:18;18.30;93.40
3690;DHT22;1861;50.240;8.596;2023-05-25T14:02:46;18.20;93.30
3690;DHT22;1861;50.240;8.596;2023-05-25T14:05:16;18.20;93.40
3690;DHT22;1861;50.240;8.596;2023-05-25T14:07:45;18.20;93.40
3690;DHT22;1861;50.240;8.596;2023-05-25T14:10:14;18.20;93.40
3690;DHT22;1861;50.240;8.596;2023-05-25T14:12:42;18.20;93.50
3690;DHT22;1861;50.240;8.596;2023-05-25T14:15:10;18.20;93.50
3690;DHT22;1861;50.240;8.596;2023-05-25T14:17:39;18.20;93.50
3690;DHT22;1861;50.240;8.596;2023-05-25T14:20:07;18.20;93.50
3690;DHT22;1861;50.240;8.596;2023-05-25T14:22:37;18.20;93.40
3690;DHT22;1861;50.240;8.596;2023-05-25T14:25:07;18.20;93.40
3690;DHT22;1861;50.240;8.596;2023-05-25T14:27:35;18.10;93.30
3690;DHT22;1861;50.240;8.596;2023-05-25T14:30:05;18.20;93.40
3690;DHT22;1861;50.240;8.596;2023-05-25T14:32:33;18.20;93.40
3690;DHT22;1861;50.240;8.596;2023-05-25T14:35:01;18.20;93.50
3690;DHT22;1861;50.240;8.596;2023-05-25T14:37:30;18.20;93.50
3690;DHT22;1861;50.240;8.596;2023-05-25T14:39:59;18.20;93.50
3690;DHT22;1861;50.240;8.596;2023-05-25T14:42:28;18.10;93.60
3690;DHT22;1861;50.240;8.596;2023-05-25T14:44:56;18.20;93.70
3690;DHT22;1861;50.240;8.596;2023-05-25T14:47:24;18.20;93.60
3690;DHT22;1861;50.240;8.596;2023-05-25T14:49:52;18.10;93.50
3690;DHT22;1861;50.240;8.596;2023-05-25T14:52:21;18.10;93.70
3690;DHT22;1861;50.240;8.596;2023-05-25T14:54:49;18.10;93.70
3690;DHT22;1861;50.240;8.596;2023-05-25T14:57:18;18.20;93.80
3690;DHT22;1861;50.240;8.596;2023-05-25T14:59:47;18.10;93.80
3690;DHT22;1861;50.240;8.596;2023-05-25T15:02:15;18.10;93.80
3690;DHT22;1861;50.240;8.596;2023-05-25T15:04:43;18.10;93.80
3690;DHT22;1861;50.240;8.596;2023-05-25T15:07:13;18.10;93.80
3690;DHT22;1861;50.240;8.596;2023-05-25T15:09:41;18.10;93.80
3690;DHT22;1861;50.240;8.596;2023-05-25T15:12:11;18.10;93.70
3690;DHT22;1861;50.240;8.596;2023-05-25T15:14:40;18.10;93.80
3690;DHT22;1861;50.240;8.596;2023-05-25T15:17:09;18.10;93.70
3690;DHT22;1861;50.240;8.596;2023-05-25T15:19:37;18.10;93.90
3690;DHT22;1861;50.240;8.596;2023-05-25T15:22:05;18.10;94.00
3690;DHT22;1861;50.240;8.596;2023-05-25T15:24:33;18.10;94.30
3690;DHT22;1861;50.240;8.596;2023-05-25T15:27:01;18.10;94.00
3690;DHT22;1861;50.240;8.596;2023-05-25T15:29:31;18.10;93.90
3690;DHT22;1861;50.240;8.596;2023-05-25T15:32:00;18.20;94.00
3690;DHT22;1861;50.240;8.596;2023-05-25T15:34:29;18.20;94.00
3690;DHT22;1861;50.240;8.596;2023-05-25T15:36:57;18.20;94.10
3690;DHT22;1861;50.240;8.596;2023-05-25T15:39:26;18.20;94.20
3690;DHT22;1861;50.240;8.596;2023-05-25T15:41:54;18.20;94.20
3690;DHT22;1861;50.240;8.596;2023-05-25T15:44:22;18.20;94.10
3690;DHT22;1861;50.240;8.596;2023-05-25T15:46:50;18.20;94.20
3690;DHT22;1861;50.240;8.596;2023-05-25T15:49:21;18.20;94.10
3690;DHT22;1861;50.240;8.596;2023-05-25T15:51:49;18.20;94.20
3690;DHT22;1861;50.240;8.596;2023-05-25T15:54:19;18.20;94.20
3690;DHT22;1861;50.240;8.596;2023-05-25T15:56:47;18.20;94.30
3690;DHT22;1861;50.240;8.596;2023-05-25T15:59:15;18.20;94.40
3690;DHT22;1861;50.240;8.596;2023-05-25T16:01:43;18.20;94.30
3690;DHT22;1861;50.240;8.596;2023-05-25T16:04:11;18.20;94.30
3690;DHT22;1861;50.240;8.596;2023-05-25T16:06:41;18.20;94.30
3690;DHT22;1861;50.240;8.596;2023-05-25T16:09:09;18.10;94.30
3690;DHT22;1861;50.240;8.596;2023-05-25T16:11:38;18.10;94.30
3690;DHT22;1861;50.240;8.596;2023-05-25T16:14:06;18.20;94.30
3690;DHT22;1861;50.240;8.596;2023-05-25T16:16:34;18.10;94.30
3690;DHT22;1861;50.240;8.596;2023-05-25T16:19:02;18.20;94.30
3690;DHT22;1861;50.240;8.596;2023-05-25T16:21:31;18.10;94.20
3690;DHT22;1861;50.240;8.596;2023-05-25T16:24:06;18.10;94.40